Hyundai Tacoma — V7DB9 — position and weather

sailwx.info

Track history (hours):
 
Tides and Currents Weather Stations Pressure Air Temp Water Temp Dewpoint Dewpoint Depression Visibility Wind Speed Wind Dir Waves Ship Positions

Hyundai Tacoma

Last reported at 2017-Nov-15 21:31 UTC. Time now 2017-Nov-18 01:10 UTC.
Position N 34°50' E 139°17'.

Length 293 m; draft 12.8 m.

Type: Cargo ship. MMSI: 538007259.

Date/timePositionNaut miles runAvg speedWind from/ knotsBaromVisibWave heightAir tempDewpointWater temp
2017-Nov-15 21:31N 34°50' E 139°17'118.5
2017-Nov-15 21:27N 34°51' E 139°18'818.3
2017-Nov-15 21:00N 34°56' E 139°26'918.3
2017-Nov-15 20:30N 35°02' E 139°35'918.1
2017-Nov-15 20:00N 35°07' E 139°44'612.0
2017-Nov-15 19:30N 35°13' E 139°46'611.4
2017-Nov-15 19:00N 35°18' E 139°44'713.0
2017-Nov-15 18:30N 35°25' E 139°43'714.9
2017-Nov-15 18:01N 35°29' E 139°50'612.2
2017-Nov-15 17:30N 35°35' E 139°48'2 3.8
2017-Nov-15 17:00N 35°36' E 139°47'0 0.1
2017-Nov-15 16:26N 35°37' E 139°47'0 0.0
2017-Nov-15 15:59N 35°37' E 139°47'0 0.0
2017-Nov-15 15:26N 35°37' E 139°47'0 0.0
2017-Nov-15 14:56N 35°37' E 139°47'0 0.0
2017-Nov-15 14:26N 35°37' E 139°47'0 0.0
2017-Nov-15 13:50N 35°37' E 139°47'0 0.0
2017-Nov-15 13:26N 35°37' E 139°47'0 0.0
2017-Nov-15 12:50N 35°37' E 139°47'0 0.0
2017-Nov-15 12:26N 35°37' E 139°47'0 0.0
2017-Nov-15 11:56N 35°37' E 139°47'0 0.0
2017-Nov-15 11:26N 35°37' E 139°47'0 0.0
2017-Nov-15 10:44N 35°37' E 139°47'0 0.0
2017-Nov-15 10:23N 35°37' E 139°47'0 0.0
2017-Nov-15 09:53N 35°37' E 139°47'0 0.0
2017-Nov-15 09:29N 35°37' E 139°47'0 0.4
2017-Nov-15 09:00N 35°36' E 139°47'3 6.0
2017-Nov-15 08:30N 35°34' E 139°49'510.6
2017-Nov-15 08:00N 35°29' E 139°52'613.3
2017-Nov-15 07:30N 35°24' E 139°46'612.1
2017-Nov-15 07:00N 35°18' E 139°44'611.9
2017-Nov-15 06:30N 35°13' E 139°47'4 8.6
2017-Nov-15 06:00N 35°09' E 139°46'510.7
2017-Nov-15 05:30N 35°04' E 139°45'713.2
2017-Nov-15 05:00N 34°57' E 139°43'714.0
2017-Nov-15 04:30N 34°51' E 139°46'1714.1
2017-Nov-15 03:18N 34°52' E 140°07'  
Track history (hours):
 
Tides and Currents Weather Stations Pressure Air Temp Water Temp Dewpoint Dewpoint Depression Visibility Wind Speed Wind Dir Waves Ship Positions

Hyundai Tacoma

Last reported at 2017-Nov-15 21:31 UTC. Time now 2017-Nov-18 01:10 UTC.
Position N 34°50' E 139°17'.

Length 293 m; draft 12.8 m.

Type: Cargo ship. MMSI: 538007259.

Date/timePositionNaut miles runAvg speedWind from/ knotsBaromVisibWave heightAir tempDewpointWater temp
2017-Nov-15 21:31N 34°50' E 139°17'118.5
2017-Nov-15 21:27N 34°51' E 139°18'818.3
2017-Nov-15 21:00N 34°56' E 139°26'918.3
2017-Nov-15 20:30N 35°02' E 139°35'918.1
2017-Nov-15 20:00N 35°07' E 139°44'612.0
2017-Nov-15 19:30N 35°13' E 139°46'611.4
2017-Nov-15 19:00N 35°18' E 139°44'713.0
2017-Nov-15 18:30N 35°25' E 139°43'714.9
2017-Nov-15 18:01N 35°29' E 139°50'612.2
2017-Nov-15 17:30N 35°35' E 139°48'2 3.8
2017-Nov-15 17:00N 35°36' E 139°47'0 0.1
2017-Nov-15 16:26N 35°37' E 139°47'0 0.0
2017-Nov-15 15:59N 35°37' E 139°47'0 0.0
2017-Nov-15 15:26N 35°37' E 139°47'0 0.0
2017-Nov-15 14:56N 35°37' E 139°47'0 0.0
2017-Nov-15 14:26N 35°37' E 139°47'0 0.0
2017-Nov-15 13:50N 35°37' E 139°47'0 0.0
2017-Nov-15 13:26N 35°37' E 139°47'0 0.0
2017-Nov-15 12:50N 35°37' E 139°47'0 0.0
2017-Nov-15 12:26N 35°37' E 139°47'0 0.0
2017-Nov-15 11:56N 35°37' E 139°47'0 0.0
2017-Nov-15 11:26N 35°37' E 139°47'0 0.0
2017-Nov-15 10:44N 35°37' E 139°47'0 0.0
2017-Nov-15 10:23N 35°37' E 139°47'0 0.0
2017-Nov-15 09:53N 35°37' E 139°47'0 0.0
2017-Nov-15 09:29N 35°37' E 139°47'0 0.4
2017-Nov-15 09:00N 35°36' E 139°47'3 6.0
2017-Nov-15 08:30N 35°34' E 139°49'510.6
2017-Nov-15 08:00N 35°29' E 139°52'613.3
2017-Nov-15 07:30N 35°24' E 139°46'612.1
2017-Nov-15 07:00N 35°18' E 139°44'611.9
2017-Nov-15 06:30N 35°13' E 139°47'4 8.6
2017-Nov-15 06:00N 35°09' E 139°46'510.7
2017-Nov-15 05:30N 35°04' E 139°45'713.2
2017-Nov-15 05:00N 34°57' E 139°43'714.0
2017-Nov-15 04:30N 34°51' E 139°46'1714.1
2017-Nov-15 03:18N 34°52' E 140°07'  

Dump ship's entire track history